sensor_id;sensor_type;location;lat;lon;timestamp;P1;durP1;ratioP1;P2;durP2;ratioP2
41635;SDS011;27623;51.966;4.602;2023-08-01T00:00:13;9.82;;;2.20;;
41635;SDS011;27623;51.966;4.602;2023-08-01T00:02:40;7.50;;;2.20;;
41635;SDS011;27623;51.966;4.602;2023-08-01T00:05:10;11.77;;;2.08;;
41635;SDS011;27623;51.966;4.602;2023-08-01T00:07:35;8.27;;;2.55;;
41635;SDS011;27623;51.966;4.602;2023-08-01T00:10:01;8.02;;;2.00;;
41635;SDS011;27623;51.966;4.602;2023-08-01T00:12:27;10.98;;;2.78;;
41635;SDS011;27623;51.966;4.602;2023-08-01T00:14:53;8.63;;;2.22;;
41635;SDS011;27623;51.966;4.602;2023-08-01T00:17:21;8.95;;;2.47;;
41635;SDS011;27623;51.966;4.602;2023-08-01T00:19:46;10.93;;;2.83;;
41635;SDS011;27623;51.966;4.602;2023-08-01T00:22:12;8.98;;;2.38;;
41635;SDS011;27623;51.966;4.602;2023-08-01T00:24:37;5.90;;;2.40;;
41635;SDS011;27623;51.966;4.602;2023-08-01T00:27:03;9.82;;;2.45;;
41635;SDS011;27623;51.966;4.602;2023-08-01T00:29:29;7.82;;;2.40;;
41635;SDS011;27623;51.966;4.602;2023-08-01T00:31:54;7.90;;;2.60;;
41635;SDS011;27623;51.966;4.602;2023-08-01T00:34:21;9.10;;;2.90;;
41635;SDS011;27623;51.966;4.602;2023-08-01T00:36:47;11.35;;;2.85;;
41635;SDS011;27623;51.966;4.602;2023-08-01T00:39:14;7.22;;;2.67;;
41635;SDS011;27623;51.966;4.602;2023-08-01T00:41:39;11.40;;;3.30;;
41635;SDS011;27623;51.966;4.602;2023-08-01T00:44:09;9.80;;;2.60;;
41635;SDS011;27623;51.966;4.602;2023-08-01T00:46:35;6.28;;;2.40;;
41635;SDS011;27623;51.966;4.602;2023-08-01T00:49:02;12.63;;;2.63;;
41635;SDS011;27623;51.966;4.602;2023-08-01T00:51:28;7.05;;;2.40;;
41635;SDS011;27623;51.966;4.602;2023-08-01T00:53:58;9.30;;;2.85;;
41635;SDS011;27623;51.966;4.602;2023-08-01T00:56:27;10.57;;;2.65;;
41635;SDS011;27623;51.966;4.602;2023-08-01T00:58:53;8.98;;;2.78;;
41635;SDS011;27623;51.966;4.602;2023-08-01T01:01:18;9.45;;;3.15;;
41635;SDS011;27623;51.966;4.602;2023-08-01T01:03:47;11.38;;;2.85;;
41635;SDS011;27623;51.966;4.602;2023-08-01T01:08:44;8.30;;;3.15;;
41635;SDS011;27623;51.966;4.602;2023-08-01T01:11:10;12.43;;;3.50;;
41635;SDS011;27623;51.966;4.602;2023-08-01T01:13:36;9.85;;;3.10;;
41635;SDS011;27623;51.966;4.602;2023-08-01T01:16:01;13.68;;;3.05;;
41635;SDS011;27623;51.966;4.602;2023-08-01T01:18:26;10.35;;;3.55;;
41635;SDS011;27623;51.966;4.602;2023-08-01T01:20:52;10.02;;;2.97;;
41635;SDS011;27623;51.966;4.602;2023-08-01T01:23:30;11.23;;;3.65;;
41635;SDS011;27623;51.966;4.602;2023-08-01T01:25:57;8.25;;;2.80;;
41635;SDS011;27623;51.966;4.602;2023-08-01T01:28:23;10.48;;;2.70;;
41635;SDS011;27623;51.966;4.602;2023-08-01T01:30:50;6.85;;;2.40;;
41635;SDS011;27623;51.966;4.602;2023-08-01T01:33:18;10.07;;;3.03;;
41635;SDS011;27623;51.966;4.602;2023-08-01T01:35:44;9.48;;;3.03;;
41635;SDS011;27623;51.966;4.602;2023-08-01T01:38:41;10.55;;;2.53;;
41635;SDS011;27623;51.966;4.602;2023-08-01T01:41:08;4.75;;;2.58;;
41635;SDS011;27623;51.966;4.602;2023-08-01T01:43:33;12.20;;;3.55;;
41635;SDS011;27623;51.966;4.602;2023-08-01T01:45:58;10.52;;;3.10;;
41635;SDS011;27623;51.966;4.602;2023-08-01T01:48:26;8.63;;;3.17;;
41635;SDS011;27623;51.966;4.602;2023-08-01T01:50:53;8.68;;;2.85;;
41635;SDS011;27623;51.966;4.602;2023-08-01T01:53:19;8.95;;;3.00;;
41635;SDS011;27623;51.966;4.602;2023-08-01T01:55:44;7.28;;;2.60;;
41635;SDS011;27623;51.966;4.602;2023-08-01T01:58:10;9.82;;;2.63;;
41635;SDS011;27623;51.966;4.602;2023-08-01T02:00:35;9.32;;;2.78;;
41635;SDS011;27623;51.966;4.602;2023-08-01T02:03:01;8.18;;;2.85;;
41635;SDS011;27623;51.966;4.602;2023-08-01T02:05:29;8.43;;;2.22;;
41635;SDS011;27623;51.966;4.602;2023-08-01T02:07:58;9.73;;;2.50;;
41635;SDS011;27623;51.966;4.602;2023-08-01T02:10:23;11.48;;;2.53;;
41635;SDS011;27623;51.966;4.602;2023-08-01T02:12:49;9.00;;;2.92;;
41635;SDS011;27623;51.966;4.602;2023-08-01T02:15:25;11.88;;;3.22;;
41635;SDS011;27623;51.966;4.602;2023-08-01T02:17:50;7.47;;;2.95;;
41635;SDS011;27623;51.966;4.602;2023-08-01T02:20:15;14.18;;;2.95;;
41635;SDS011;27623;51.966;4.602;2023-08-01T02:22:43;10.90;;;3.15;;
41635;SDS011;27623;51.966;4.602;2023-08-01T02:25:08;10.65;;;3.05;;
41635;SDS011;27623;51.966;4.602;2023-08-01T02:27:33;9.40;;;3.00;;
41635;SDS011;27623;51.966;4.602;2023-08-01T02:29:59;11.48;;;3.72;;
41635;SDS011;27623;51.966;4.602;2023-08-01T02:32:24;9.05;;;3.15;;
41635;SDS011;27623;51.966;4.602;2023-08-01T02:34:49;12.88;;;2.92;;
41635;SDS011;27623;51.966;4.602;2023-08-01T02:37:15;9.52;;;2.85;;
41635;SDS011;27623;51.966;4.602;2023-08-01T02:39:40;14.02;;;3.80;;
41635;SDS011;27623;51.966;4.602;2023-08-01T02:42:06;12.55;;;3.63;;
41635;SDS011;27623;51.966;4.602;2023-08-01T02:44:31;10.60;;;3.10;;
41635;SDS011;27623;51.966;4.602;2023-08-01T02:46:57;10.68;;;3.25;;
41635;SDS011;27623;51.966;4.602;2023-08-01T02:49:22;11.75;;;3.30;;
41635;SDS011;27623;51.966;4.602;2023-08-01T02:51:47;10.27;;;3.35;;
41635;SDS011;27623;51.966;4.602;2023-08-01T02:54:16;13.05;;;3.78;;
41635;SDS011;27623;51.966;4.602;2023-08-01T02:56:41;12.18;;;3.58;;
41635;SDS011;27623;51.966;4.602;2023-08-01T02:59:07;9.52;;;3.65;;
41635;SDS011;27623;51.966;4.602;2023-08-01T03:01:34;15.23;;;3.53;;
41635;SDS011;27623;51.966;4.602;2023-08-01T03:04:01;16.67;;;3.80;;
41635;SDS011;27623;51.966;4.602;2023-08-01T03:06:27;17.48;;;4.20;;
41635;SDS011;27623;51.966;4.602;2023-08-01T03:08:53;15.32;;;4.25;;
41635;SDS011;27623;51.966;4.602;2023-08-01T03:11:18;15.38;;;4.13;;
41635;SDS011;27623;51.966;4.602;2023-08-01T03:13:44;14.43;;;3.65;;
41635;SDS011;27623;51.966;4.602;2023-08-01T03:16:09;12.48;;;4.00;;
41635;SDS011;27623;51.966;4.602;2023-08-01T03:18:35;20.73;;;3.92;;
41635;SDS011;27623;51.966;4.602;2023-08-01T03:21:01;12.25;;;3.90;;
41635;SDS011;27623;51.966;4.602;2023-08-01T03:23:28;17.75;;;4.05;;
41635;SDS011;27623;51.966;4.602;2023-08-01T03:25:54;14.02;;;3.53;;
41635;SDS011;27623;51.966;4.602;2023-08-01T03:28:19;14.90;;;3.67;;
41635;SDS011;27623;51.966;4.602;2023-08-01T03:30:45;14.25;;;5.43;;
41635;SDS011;27623;51.966;4.602;2023-08-01T03:33:10;12.38;;;4.38;;
41635;SDS011;27623;51.966;4.602;2023-08-01T03:35:35;15.90;;;4.15;;
41635;SDS011;27623;51.966;4.602;2023-08-01T03:38:01;17.33;;;3.90;;
41635;SDS011;27623;51.966;4.602;2023-08-01T03:40:26;14.82;;;4.13;;
41635;SDS011;27623;51.966;4.602;2023-08-01T03:42:57;17.27;;;4.57;;
41635;SDS011;27623;51.966;4.602;2023-08-01T03:45:23;22.15;;;4.60;;
41635;SDS011;27623;51.966;4.602;2023-08-01T03:47:48;18.27;;;5.00;;
41635;SDS011;27623;51.966;4.602;2023-08-01T03:50:14;15.18;;;4.47;;
41635;SDS011;27623;51.966;4.602;2023-08-01T03:52:39;14.30;;;4.32;;
41635;SDS011;27623;51.966;4.602;2023-08-01T03:55:05;13.50;;;4.40;;
41635;SDS011;27623;51.966;4.602;2023-08-01T03:57:31;18.55;;;4.45;;
41635;SDS011;27623;51.966;4.602;2023-08-01T03:59:58;13.70;;;4.05;;
41635;SDS011;27623;51.966;4.602;2023-08-01T04:02:24;12.23;;;3.63;;
41635;SDS011;27623;51.966;4.602;2023-08-01T04:04:49;12.35;;;4.80;;
41635;SDS011;27623;51.966;4.602;2023-08-01T04:07:14;11.23;;;3.38;;
41635;SDS011;27623;51.966;4.602;2023-08-01T04:09:40;13.10;;;3.85;;
41635;SDS011;27623;51.966;4.602;2023-08-01T04:12:05;16.83;;;4.43;;
41635;SDS011;27623;51.966;4.602;2023-08-01T04:14:31;9.90;;;2.83;;
41635;SDS011;27623;51.966;4.602;2023-08-01T04:16:57;11.68;;;3.80;;
41635;SDS011;27623;51.966;4.602;2023-08-01T04:19:25;14.05;;;3.88;;
41635;SDS011;27623;51.966;4.602;2023-08-01T04:21:50;9.63;;;2.95;;
41635;SDS011;27623;51.966;4.602;2023-08-01T04:24:16;13.75;;;3.00;;
41635;SDS011;27623;51.966;4.602;2023-08-01T04:26:41;15.80;;;3.50;;
41635;SDS011;27623;51.966;4.602;2023-08-01T04:29:06;11.13;;;3.03;;
41635;SDS011;27623;51.966;4.602;2023-08-01T04:31:32;13.82;;;3.40;;
41635;SDS011;27623;51.966;4.602;2023-08-01T04:33:57;14.63;;;3.55;;
41635;SDS011;27623;51.966;4.602;2023-08-01T04:36:23;12.95;;;3.42;;
41635;SDS011;27623;51.966;4.602;2023-08-01T04:38:48;17.20;;;3.92;;
41635;SDS011;27623;51.966;4.602;2023-08-01T04:41:13;8.85;;;3.22;;
41635;SDS011;27623;51.966;4.602;2023-08-01T04:43:39;10.63;;;2.97;;
41635;SDS011;27623;51.966;4.602;2023-08-01T04:46:04;12.40;;;3.47;;
41635;SDS011;27623;51.966;4.602;2023-08-01T04:48:32;8.50;;;3.08;;
41635;SDS011;27623;51.966;4.602;2023-08-01T04:50:58;8.65;;;3.47;;
41635;SDS011;27623;51.966;4.602;2023-08-01T04:53:23;8.98;;;2.97;;
41635;SDS011;27623;51.966;4.602;2023-08-01T04:55:49;9.95;;;3.13;;
41635;SDS011;27623;51.966;4.602;2023-08-01T04:58:29;9.80;;;3.30;;
41635;SDS011;27623;51.966;4.602;2023-08-01T05:00:57;11.85;;;2.95;;
41635;SDS011;27623;51.966;4.602;2023-08-01T05:03:28;12.55;;;2.80;;
41635;SDS011;27623;51.966;4.602;2023-08-01T05:06:02;7.85;;;3.20;;
41635;SDS011;27623;51.966;4.602;2023-08-01T05:08:28;14.25;;;3.17;;
41635;SDS011;27623;51.966;4.602;2023-08-01T05:10:56;13.38;;;2.70;;
41635;SDS011;27623;51.966;4.602;2023-08-01T05:13:22;12.07;;;3.35;;
41635;SDS011;27623;51.966;4.602;2023-08-01T05:15:47;10.50;;;2.88;;
41635;SDS011;27623;51.966;4.602;2023-08-01T05:18:15;10.82;;;3.15;;
41635;SDS011;27623;51.966;4.602;2023-08-01T05:20:45;12.32;;;3.22;;
41635;SDS011;27623;51.966;4.602;2023-08-01T05:23:12;11.65;;;3.78;;
41635;SDS011;27623;51.966;4.602;2023-08-01T05:25:37;14.07;;;3.35;;
41635;SDS011;27623;51.966;4.602;2023-08-01T05:28:10;9.43;;;3.85;;
41635;SDS011;27623;51.966;4.602;2023-08-01T05:30:35;7.50;;;3.45;;
41635;SDS011;27623;51.966;4.602;2023-08-01T05:33:03;12.40;;;3.50;;
41635;SDS011;27623;51.966;4.602;2023-08-01T05:35:31;8.02;;;2.35;;
41635;SDS011;27623;51.966;4.602;2023-08-01T05:37:57;9.45;;;3.65;;
41635;SDS011;27623;51.966;4.602;2023-08-01T05:40:23;14.32;;;3.10;;
41635;SDS011;27623;51.966;4.602;2023-08-01T05:42:48;12.30;;;2.70;;
41635;SDS011;27623;51.966;4.602;2023-08-01T05:45:14;11.35;;;4.80;;
41635;SDS011;27623;51.966;4.602;2023-08-01T05:47:45;19.27;;;7.28;;
41635;SDS011;27623;51.966;4.602;2023-08-01T05:50:13;15.40;;;3.28;;
41635;SDS011;27623;51.966;4.602;2023-08-01T05:52:41;8.18;;;2.60;;
41635;SDS011;27623;51.966;4.602;2023-08-01T05:55:14;10.15;;;2.47;;
41635;SDS011;27623;51.966;4.602;2023-08-01T05:57:40;8.88;;;2.42;;
41635;SDS011;27623;51.966;4.602;2023-08-01T06:00:05;12.15;;;4.38;;
41635;SDS011;27623;51.966;4.602;2023-08-01T06:02:31;11.10;;;3.47;;
41635;SDS011;27623;51.966;4.602;2023-08-01T06:04:57;8.45;;;2.50;;
41635;SDS011;27623;51.966;4.602;2023-08-01T06:07:22;11.50;;;2.45;;
41635;SDS011;27623;51.966;4.602;2023-08-01T06:09:50;11.30;;;3.10;;
41635;SDS011;27623;51.966;4.602;2023-08-01T06:12:17;9.70;;;2.17;;
41635;SDS011;27623;51.966;4.602;2023-08-01T06:14:43;12.10;;;3.42;;
41635;SDS011;27623;51.966;4.602;2023-08-01T06:17:08;11.77;;;2.80;;
41635;SDS011;27623;51.966;4.602;2023-08-01T06:19:34;11.57;;;3.20;;
41635;SDS011;27623;51.966;4.602;2023-08-01T06:21:59;13.57;;;3.05;;
41635;SDS011;27623;51.966;4.602;2023-08-01T06:24:27;7.57;;;3.15;;
41635;SDS011;27623;51.966;4.602;2023-08-01T06:26:52;13.60;;;3.25;;
41635;SDS011;27623;51.966;4.602;2023-08-01T06:29:18;11.80;;;2.78;;
41635;SDS011;27623;51.966;4.602;2023-08-01T06:31:43;11.73;;;2.25;;
41635;SDS011;27623;51.966;4.602;2023-08-01T06:34:08;10.77;;;3.00;;
41635;SDS011;27623;51.966;4.602;2023-08-01T06:36:34;10.85;;;2.72;;
41635;SDS011;27623;51.966;4.602;2023-08-01T06:39:02;8.55;;;2.22;;
41635;SDS011;27623;51.966;4.602;2023-08-01T06:41:28;13.57;;;3.08;;
41635;SDS011;27623;51.966;4.602;2023-08-01T06:43:53;10.13;;;2.58;;
41635;SDS011;27623;51.966;4.602;2023-08-01T06:46:18;9.52;;;2.80;;
41635;SDS011;27623;51.966;4.602;2023-08-01T06:48:44;10.52;;;2.55;;
41635;SDS011;27623;51.966;4.602;2023-08-01T06:51:11;13.50;;;3.42;;
41635;SDS011;27623;51.966;4.602;2023-08-01T06:53:37;8.45;;;2.85;;
41635;SDS011;27623;51.966;4.602;2023-08-01T06:56:02;13.50;;;3.78;;
41635;SDS011;27623;51.966;4.602;2023-08-01T06:58:27;11.00;;;3.00;;
41635;SDS011;27623;51.966;4.602;2023-08-01T07:00:57;10.40;;;2.63;;
41635;SDS011;27623;51.966;4.602;2023-08-01T07:03:23;12.00;;;3.00;;
41635;SDS011;27623;51.966;4.602;2023-08-01T07:05:48;8.27;;;3.50;;
41635;SDS011;27623;51.966;4.602;2023-08-01T07:10:51;12.77;;;2.63;;
41635;SDS011;27623;51.966;4.602;2023-08-01T07:13:16;11.35;;;2.80;;
41635;SDS011;27623;51.966;4.602;2023-08-01T07:15:44;10.60;;;2.67;;
41635;SDS011;27623;51.966;4.602;2023-08-01T07:18:09;13.70;;;2.22;;
41635;SDS011;27623;51.966;4.602;2023-08-01T07:20:35;7.35;;;2.50;;
41635;SDS011;27623;51.966;4.602;2023-08-01T07:23:00;15.77;;;3.47;;
41635;SDS011;27623;51.966;4.602;2023-08-01T07:25:26;10.43;;;3.47;;
41635;SDS011;27623;51.966;4.602;2023-08-01T07:27:52;9.82;;;2.42;;
41635;SDS011;27623;51.966;4.602;2023-08-01T07:30:17;5.72;;;2.30;;
41635;SDS011;27623;51.966;4.602;2023-08-01T07:32:42;18.13;;;4.90;;
41635;SDS011;27623;51.966;4.602;2023-08-01T07:35:08;11.85;;;3.30;;
41635;SDS011;27623;51.966;4.602;2023-08-01T07:37:36;6.22;;;2.13;;
41635;SDS011;27623;51.966;4.602;2023-08-01T07:40:04;10.48;;;2.25;;
41635;SDS011;27623;51.966;4.602;2023-08-01T07:42:31;11.15;;;2.13;;
41635;SDS011;27623;51.966;4.602;2023-08-01T07:44:56;9.65;;;1.63;;
41635;SDS011;27623;51.966;4.602;2023-08-01T07:47:22;12.43;;;2.30;;
41635;SDS011;27623;51.966;4.602;2023-08-01T07:49:49;6.35;;;1.83;;
41635;SDS011;27623;51.966;4.602;2023-08-01T07:52:55;5.70;;;1.70;;
41635;SDS011;27623;51.966;4.602;2023-08-01T07:55:21;10.00;;;1.95;;
41635;SDS011;27623;51.966;4.602;2023-08-01T07:57:48;6.13;;;1.73;;
41635;SDS011;27623;51.966;4.602;2023-08-01T08:00:16;11.13;;;1.85;;
41635;SDS011;27623;51.966;4.602;2023-08-01T08:02:53;6.95;;;1.65;;
41635;SDS011;27623;51.966;4.602;2023-08-01T08:05:18;7.60;;;2.20;;
41635;SDS011;27623;51.966;4.602;2023-08-01T08:07:44;9.35;;;1.88;;
41635;SDS011;27623;51.966;4.602;2023-08-01T08:10:14;8.90;;;2.25;;
41635;SDS011;27623;51.966;4.602;2023-08-01T08:12:40;7.30;;;1.88;;
41635;SDS011;27623;51.966;4.602;2023-08-01T08:15:38;9.40;;;1.90;;
41635;SDS011;27623;51.966;4.602;2023-08-01T08:18:04;11.35;;;2.15;;
41635;SDS011;27623;51.966;4.602;2023-08-01T08:20:33;9.98;;;1.77;;
41635;SDS011;27623;51.966;4.602;2023-08-01T08:23:09;10.55;;;2.33;;
41635;SDS011;27623;51.966;4.602;2023-08-01T08:25:40;5.78;;;1.90;;
41635;SDS011;27623;51.966;4.602;2023-08-01T08:28:06;6.75;;;1.58;;
41635;SDS011;27623;51.966;4.602;2023-08-01T08:30:32;7.50;;;1.90;;
41635;SDS011;27623;51.966;4.602;2023-08-01T08:32:58;6.60;;;1.98;;
41635;SDS011;27623;51.966;4.602;2023-08-01T08:35:25;6.60;;;1.92;;
41635;SDS011;27623;51.966;4.602;2023-08-01T08:38:40;8.93;;;1.90;;
41635;SDS011;27623;51.966;4.602;2023-08-01T08:41:09;6.70;;;2.50;;
41635;SDS011;27623;51.966;4.602;2023-08-01T08:43:38;9.43;;;2.10;;
41635;SDS011;27623;51.966;4.602;2023-08-01T08:46:06;11.43;;;2.17;;
41635;SDS011;27623;51.966;4.602;2023-08-01T08:48:33;6.30;;;1.48;;
41635;SDS011;27623;51.966;4.602;2023-08-01T08:50:59;12.18;;;1.85;;
41635;SDS011;27623;51.966;4.602;2023-08-01T08:53:26;11.50;;;2.97;;
41635;SDS011;27623;51.966;4.602;2023-08-01T08:56:00;9.48;;;2.33;;
41635;SDS011;27623;51.966;4.602;2023-08-01T08:58:26;9.38;;;2.10;;
41635;SDS011;27623;51.966;4.602;2023-08-01T09:00:54;6.65;;;1.60;;
41635;SDS011;27623;51.966;4.602;2023-08-01T09:03:20;9.10;;;2.58;;
41635;SDS011;27623;51.966;4.602;2023-08-01T09:05:54;8.45;;;2.33;;
41635;SDS011;27623;51.966;4.602;2023-08-01T09:08:28;8.55;;;2.00;;
41635;SDS011;27623;51.966;4.602;2023-08-01T09:11:00;5.65;;;1.75;;
41635;SDS011;27623;51.966;4.602;2023-08-01T09:13:25;11.02;;;2.45;;
41635;SDS011;27623;51.966;4.602;2023-08-01T09:15:50;11.27;;;1.80;;
41635;SDS011;27623;51.966;4.602;2023-08-01T09:18:17;7.97;;;2.10;;
41635;SDS011;27623;51.966;4.602;2023-08-01T09:20:43;4.60;;;1.75;;
41635;SDS011;27623;51.966;4.602;2023-08-01T09:23:10;9.00;;;1.88;;
41635;SDS011;27623;51.966;4.602;2023-08-01T09:25:38;7.40;;;2.10;;
41635;SDS011;27623;51.966;4.602;2023-08-01T09:31:00;9.18;;;2.03;;
41635;SDS011;27623;51.966;4.602;2023-08-01T09:33:25;11.05;;;2.53;;
41635;SDS011;27623;51.966;4.602;2023-08-01T09:35:51;10.20;;;1.85;;
41635;SDS011;27623;51.966;4.602;2023-08-01T09:38:17;7.50;;;1.75;;
41635;SDS011;27623;51.966;4.602;2023-08-01T09:40:43;9.38;;;2.17;;
41635;SDS011;27623;51.966;4.602;2023-08-01T09:43:10;10.88;;;2.58;;
41635;SDS011;27623;51.966;4.602;2023-08-01T09:45:51;7.13;;;2.05;;
41635;SDS011;27623;51.966;4.602;2023-08-01T09:48:26;7.03;;;1.90;;
41635;SDS011;27623;51.966;4.602;2023-08-01T09:51:14;6.55;;;1.52;;
41635;SDS011;27623;51.966;4.602;2023-08-01T09:53:47;4.75;;;1.27;;
41635;SDS011;27623;51.966;4.602;2023-08-01T09:58:43;6.95;;;1.85;;
41635;SDS011;27623;51.966;4.602;2023-08-01T10:01:10;6.47;;;1.92;;
41635;SDS011;27623;51.966;4.602;2023-08-01T10:03:37;6.20;;;1.45;;
41635;SDS011;27623;51.966;4.602;2023-08-01T10:06:09;6.68;;;1.95;;
41635;SDS011;27623;51.966;4.602;2023-08-01T10:08:37;12.70;;;5.30;;
41635;SDS011;27623;51.966;4.602;2023-08-01T10:11:06;6.85;;;1.83;;
41635;SDS011;27623;51.966;4.602;2023-08-01T10:13:36;10.57;;;1.65;;
41635;SDS011;27623;51.966;4.602;2023-08-01T10:16:01;7.22;;;1.75;;
41635;SDS011;27623;51.966;4.602;2023-08-01T10:18:27;8.43;;;1.58;;
41635;SDS011;27623;51.966;4.602;2023-08-01T10:20:54;5.90;;;1.80;;
41635;SDS011;27623;51.966;4.602;2023-08-01T10:23:19;6.85;;;2.40;;
41635;SDS011;27623;51.966;4.602;2023-08-01T10:25:45;8.90;;;1.65;;
41635;SDS011;27623;51.966;4.602;2023-08-01T10:28:11;5.63;;;1.20;;
41635;SDS011;27623;51.966;4.602;2023-08-01T10:30:55;10.40;;;1.77;;
41635;SDS011;27623;51.966;4.602;2023-08-01T10:33:34;4.90;;;1.45;;
41635;SDS011;27623;51.966;4.602;2023-08-01T10:36:00;8.55;;;2.00;;
41635;SDS011;27623;51.966;4.602;2023-08-01T10:38:25;6.93;;;2.17;;
41635;SDS011;27623;51.966;4.602;2023-08-01T10:40:50;7.00;;;1.52;;
41635;SDS011;27623;51.966;4.602;2023-08-01T10:43:20;8.25;;;1.55;;
41635;SDS011;27623;51.966;4.602;2023-08-01T10:45:48;8.80;;;1.77;;
41635;SDS011;27623;51.966;4.602;2023-08-01T10:48:24;10.15;;;2.10;;
41635;SDS011;27623;51.966;4.602;2023-08-01T10:50:55;8.35;;;1.92;;
41635;SDS011;27623;51.966;4.602;2023-08-01T10:53:36;5.97;;;1.60;;
41635;SDS011;27623;51.966;4.602;2023-08-01T10:56:18;4.63;;;1.38;;
41635;SDS011;27623;51.966;4.602;2023-08-01T10:58:44;12.65;;;2.30;;
41635;SDS011;27623;51.966;4.602;2023-08-01T11:02:09;8.93;;;1.83;;
41635;SDS011;27623;51.966;4.602;2023-08-01T11:05:33;7.72;;;1.60;;
41635;SDS011;27623;51.966;4.602;2023-08-01T11:09:41;9.27;;;2.05;;
41635;SDS011;27623;51.966;4.602;2023-08-01T11:12:00;6.90;;;2.20;;
41635;SDS011;27623;51.966;4.602;2023-08-01T11:14:28;7.53;;;1.83;;
41635;SDS011;27623;51.966;4.602;2023-08-01T11:16:54;10.50;;;1.60;;
41635;SDS011;27623;51.966;4.602;2023-08-01T11:19:22;6.38;;;1.60;;
41635;SDS011;27623;51.966;4.602;2023-08-01T11:21:51;18.80;;;2.47;;
41635;SDS011;27623;51.966;4.602;2023-08-01T11:24:18;8.98;;;1.80;;
41635;SDS011;27623;51.966;4.602;2023-08-01T11:26:45;8.25;;;1.80;;
41635;SDS011;27623;51.966;4.602;2023-08-01T11:29:12;9.48;;;1.95;;
41635;SDS011;27623;51.966;4.602;2023-08-01T11:31:40;8.55;;;1.85;;
41635;SDS011;27623;51.966;4.602;2023-08-01T11:34:20;10.07;;;1.85;;
41635;SDS011;27623;51.966;4.602;2023-08-01T11:37:06;7.90;;;1.48;;
41635;SDS011;27623;51.966;4.602;2023-08-01T11:39:36;7.63;;;1.92;;
41635;SDS011;27623;51.966;4.602;2023-08-01T11:42:01;4.53;;;1.70;;
41635;SDS011;27623;51.966;4.602;2023-08-01T11:44:28;8.18;;;1.35;;
41635;SDS011;27623;51.966;4.602;2023-08-01T11:46:57;4.78;;;1.20;;
41635;SDS011;27623;51.966;4.602;2023-08-01T11:49:22;5.50;;;1.40;;
41635;SDS011;27623;51.966;4.602;2023-08-01T11:51:48;8.52;;;1.77;;
41635;SDS011;27623;51.966;4.602;2023-08-01T11:54:29;12.25;;;2.05;;
41635;SDS011;27623;51.966;4.602;2023-08-01T11:57:00;7.85;;;1.65;;
41635;SDS011;27623;51.966;4.602;2023-08-01T11:59:26;7.88;;;1.48;;
41635;SDS011;27623;51.966;4.602;2023-08-01T12:01:51;7.32;;;1.73;;
41635;SDS011;27623;51.966;4.602;2023-08-01T12:04:24;7.95;;;1.88;;
41635;SDS011;27623;51.966;4.602;2023-08-01T12:06:51;8.18;;;1.77;;
41635;SDS011;27623;51.966;4.602;2023-08-01T12:09:19;8.80;;;2.03;;
41635;SDS011;27623;51.966;4.602;2023-08-01T12:11:45;10.40;;;1.42;;
41635;SDS011;27623;51.966;4.602;2023-08-01T12:14:14;6.95;;;1.30;;
41635;SDS011;27623;51.966;4.602;2023-08-01T12:16:44;7.32;;;1.30;;
41635;SDS011;27623;51.966;4.602;2023-08-01T12:19:10;9.02;;;1.83;;
41635;SDS011;27623;51.966;4.602;2023-08-01T12:21:43;9.57;;;1.83;;
41635;SDS011;27623;51.966;4.602;2023-08-01T12:24:09;5.57;;;2.72;;
41635;SDS011;27623;51.966;4.602;2023-08-01T12:26:35;9.65;;;1.65;;
41635;SDS011;27623;51.966;4.602;2023-08-01T12:29:00;10.10;;;1.38;;
41635;SDS011;27623;51.966;4.602;2023-08-01T12:32:24;5.93;;;1.08;;
41635;SDS011;27623;51.966;4.602;2023-08-01T12:34:58;7.50;;;1.58;;
41635;SDS011;27623;51.966;4.602;2023-08-01T12:37:24;7.47;;;1.42;;
41635;SDS011;27623;51.966;4.602;2023-08-01T12:39:51;7.70;;;1.60;;
41635;SDS011;27623;51.966;4.602;2023-08-01T12:42:18;5.50;;;1.30;;
41635;SDS011;27623;51.966;4.602;2023-08-01T12:44:43;9.25;;;1.92;;
41635;SDS011;27623;51.966;4.602;2023-08-01T12:47:09;11.48;;;2.80;;
41635;SDS011;27623;51.966;4.602;2023-08-01T12:49:36;7.68;;;1.88;;
41635;SDS011;27623;51.966;4.602;2023-08-01T12:52:02;6.40;;;1.25;;
41635;SDS011;27623;51.966;4.602;2023-08-01T12:54:29;9.10;;;2.05;;
41635;SDS011;27623;51.966;4.602;2023-08-01T12:56:55;18.05;;;3.33;;
41635;SDS011;27623;51.966;4.602;2023-08-01T12:59:20;8.43;;;1.40;;
41635;SDS011;27623;51.966;4.602;2023-08-01T13:01:46;6.15;;;1.38;;
41635;SDS011;27623;51.966;4.602;2023-08-01T13:04:11;7.63;;;1.92;;
41635;SDS011;27623;51.966;4.602;2023-08-01T13:06:36;5.30;;;1.20;;
41635;SDS011;27623;51.966;4.602;2023-08-01T13:09:02;10.25;;;1.75;;
41635;SDS011;27623;51.966;4.602;2023-08-01T13:11:27;5.18;;;1.35;;
41635;SDS011;27623;51.966;4.602;2023-08-01T13:13:53;11.30;;;3.30;;
41635;SDS011;27623;51.966;4.602;2023-08-01T13:16:18;8.50;;;2.00;;
41635;SDS011;27623;51.966;4.602;2023-08-01T13:18:44;6.47;;;1.38;;
41635;SDS011;27623;51.966;4.602;2023-08-01T13:21:10;5.00;;;1.20;;
41635;SDS011;27623;51.966;4.602;2023-08-01T13:23:37;3.22;;;0.85;;
41635;SDS011;27623;51.966;4.602;2023-08-01T13:26:02;8.32;;;1.55;;
41635;SDS011;27623;51.966;4.602;2023-08-01T13:28:27;5.57;;;1.58;;
41635;SDS011;27623;51.966;4.602;2023-08-01T13:30:53;8.73;;;1.60;;
41635;SDS011;27623;51.966;4.602;2023-08-01T13:33:18;6.22;;;1.48;;
41635;SDS011;27623;51.966;4.602;2023-08-01T13:35:43;4.53;;;1.50;;
41635;SDS011;27623;51.966;4.602;2023-08-01T13:38:09;5.80;;;1.13;;
41635;SDS011;27623;51.966;4.602;2023-08-01T13:40:35;9.43;;;1.67;;
41635;SDS011;27623;51.966;4.602;2023-08-01T13:43:03;9.43;;;2.10;;
41635;SDS011;27623;51.966;4.602;2023-08-01T13:45:31;5.78;;;1.25;;
41635;SDS011;27623;51.966;4.602;2023-08-01T13:47:57;6.15;;;1.70;;
41635;SDS011;27623;51.966;4.602;2023-08-01T13:50:22;9.63;;;1.65;;
41635;SDS011;27623;51.966;4.602;2023-08-01T13:53:08;6.80;;;1.55;;
41635;SDS011;27623;51.966;4.602;2023-08-01T13:55:35;6.68;;;1.25;;
41635;SDS011;27623;51.966;4.602;2023-08-01T13:58:00;3.92;;;1.17;;
41635;SDS011;27623;51.966;4.602;2023-08-01T14:00:47;5.25;;;1.30;;
41635;SDS011;27623;51.966;4.602;2023-08-01T14:03:12;8.10;;;1.65;;
41635;SDS011;27623;51.966;4.602;2023-08-01T14:05:38;6.65;;;1.38;;
41635;SDS011;27623;51.966;4.602;2023-08-01T14:08:03;11.10;;;1.67;;
41635;SDS011;27623;51.966;4.602;2023-08-01T14:10:30;6.88;;;1.15;;
41635;SDS011;27623;51.966;4.602;2023-08-01T14:12:55;6.32;;;1.38;;
41635;SDS011;27623;51.966;4.602;2023-08-01T14:15:20;7.35;;;1.65;;
41635;SDS011;27623;51.966;4.602;2023-08-01T14:18:44;10.68;;;2.00;;
41635;SDS011;27623;51.966;4.602;2023-08-01T14:21:10;5.32;;;1.13;;
41635;SDS011;27623;51.966;4.602;2023-08-01T14:23:35;8.90;;;1.55;;
41635;SDS011;27623;51.966;4.602;2023-08-01T14:26:05;7.95;;;1.55;;
41635;SDS011;27623;51.966;4.602;2023-08-01T14:28:30;7.88;;;1.67;;
41635;SDS011;27623;51.966;4.602;2023-08-01T14:30:59;6.00;;;1.20;;
41635;SDS011;27623;51.966;4.602;2023-08-01T14:33:25;6.65;;;1.27;;
41635;SDS011;27623;51.966;4.602;2023-08-01T14:35:51;7.88;;;1.77;;
41635;SDS011;27623;51.966;4.602;2023-08-01T14:38:18;8.23;;;1.55;;
41635;SDS011;27623;51.966;4.602;2023-08-01T14:40:46;4.10;;;1.15;;
41635;SDS011;27623;51.966;4.602;2023-08-01T14:43:11;9.65;;;1.80;;
41635;SDS011;27623;51.966;4.602;2023-08-01T14:45:37;5.53;;;1.10;;
41635;SDS011;27623;51.966;4.602;2023-08-01T14:48:04;7.65;;;1.15;;
41635;SDS011;27623;51.966;4.602;2023-08-01T14:50:32;7.63;;;1.30;;
41635;SDS011;27623;51.966;4.602;2023-08-01T14:52:58;8.30;;;1.73;;
41635;SDS011;27623;51.966;4.602;2023-08-01T14:55:31;10.60;;;1.38;;
41635;SDS011;27623;51.966;4.602;2023-08-01T14:57:57;7.90;;;1.50;;
41635;SDS011;27623;51.966;4.602;2023-08-01T15:00:22;11.70;;;1.75;;